Costa Marques, Brazil
Current Conditions -  °F | °C
As of 7:00 PM on Saturday 20 Dec 2014 (Local Time) from SBGM Reporting Station
Clear Clear  
Wind Chill: 77°   Ceiling: Unl
Heat Index: 78°   Visibility: 6mi
Dew Point: 75°   Wind: 2mph
Humidity: 94%   Direction: 330°NNW
Pressure: 29.71"   Gusts: NA
Location:  12.45°S, 64.23°W
Report Text: SBGM 202300Z 33002KT CAVOK 25/24 Q1006
Loading
Personal Weather Stations






























Interactive Weather Map New forecast layout! Learn more

10-Day Weather Forecast

Advertisements
Track Severe Weather on mobile